Time;durP1;ratioP1;P1;durP2;ratioP2;P2;SDS_P1;SDS_P2;PMS_P1;PMS_P2;Temp;Humidity;BMP_temperature;BMP_pressure;BME280_temperature;BME280_humidity;BME280_pressure;Samples;Min_cycle;Max_cycle;Signal;HPM_P1;HPM_P2
2023/11/12 00:03:30;470482.00;1.57;811.02;0.00;0.00;0.62;;;;;14.50;1.00;;;;;;2265549;61;1403;-87
2023/11/12 00:05:57;240583.00;0.80;415.75;0.00;0.00;0.62;;;;;14.40;1.00;;;;;;2268371;55;3798;-87
2023/11/12 00:10:54;499770.00;1.67;861.43;0.00;0.00;0.62;;;;;14.50;1.00;;;;;;2282914;55;3652;-86
2023/11/12 00:13:22;300648.00;1.00;519.03;0.00;0.00;0.62;;;;;14.30;1.00;;;;;;2324344;40;3671;-86
2023/11/12 00:15:49;322782.00;1.08;557.08;0.00;0.00;0.62;;;;;13.70;1.00;;;;;;2295382;40;3596;-88
2023/11/12 00:18:16;286388.00;0.95;494.52;0.00;0.00;0.62;;;;;13.80;1.00;;;;;;2306745;56;3756;-87
2023/11/12 00:20:50;348779.00;1.16;601.76;0.00;0.00;0.62;;;;;13.80;1.00;;;;;;2279927;60;1051;-88
2023/11/12 00:23:18;94840.00;0.32;164.66;0.00;0.00;0.62;;;;;13.90;1.00;;;;;;2318463;40;3574;-87
2023/11/12 00:25:47;165206.00;0.55;286.01;0.00;0.00;0.62;;;;;14.00;1.00;;;;;;2275873;60;1470;-87
2023/11/12 00:28:14;125291.00;0.42;217.21;0.00;0.00;0.62;;;;;13.70;1.00;;;;;;2318796;55;3774;-88
2023/11/12 00:30:41;142715.00;0.48;247.25;0.00;0.00;0.62;;;;;13.80;1.00;;;;;;2283985;60;1040;-88
2023/11/12 00:33:08;60834.00;0.20;105.92;0.00;0.00;0.62;;;;;13.50;1.00;;;;;;2290409;55;3785;-88
2023/11/12 00:35:44;117609888.00;392.03;65896468.00;0.00;0.00;0.62;;;;;13.30;1.00;;;;;;2288233;56;3735;-87
2023/11/12 00:38:16;221244.00;0.74;382.48;0.00;0.00;0.62;;;;;13.30;1.00;;;;;;2284420;55;3746;-88
2023/11/12 00:43:20;14661.00;0.05;26.02;0.00;0.00;0.62;;;;;13.60;1.00;;;;;;1168784;39;3128;-89
2023/11/12 00:45:56;66036.00;0.22;114.91;0.00;0.00;0.62;;;;;13.40;1.00;;;;;;2275789;60;1614;-87
2023/11/12 00:48:23;7684.00;0.03;13.94;0.00;0.00;0.62;;;;;13.30;1.00;;;;;;2275858;60;1598;-88
2023/11/12 00:50:53;218347.00;0.73;377.50;0.00;0.00;0.62;;;;;13.20;1.00;;;;;;2275729;60;980;-88
2023/11/12 00:53:22;262411.00;0.87;453.29;0.00;0.00;0.62;;;;;13.00;1.00;;;;;;2295803;40;3619;-87
2023/11/12 00:55:49;254657.00;0.85;439.96;0.00;0.00;0.62;;;;;13.40;1.00;;;;;;2287561;40;3640;-88
2023/11/12 00:58:22;171865.00;0.57;297.48;0.00;0.00;0.62;;;;;13.10;1.00;;;;;;2283401;55;3749;-86
2023/11/12 01:00:49;533205.00;1.78;919.01;84932.00;0.28;147.56;;;;;13.20;1.00;;;;;;2287655;56;3744;-87
2023/11/12 01:03:16;647993.00;2.16;1117.16;92454.00;0.31;160.54;;;;;13.50;1.00;;;;;;2278919;60;1664;-86
2023/11/12 01:05:45;392428.00;1.31;676.79;79540.00;0.27;138.24;;;;;13.70;1.00;;;;;;2275801;60;1637;-87
2023/11/12 01:10:47;393159.00;1.31;678.05;68708.00;0.23;119.53;;;;;14.20;1.00;;;;;;2277511;60;1281;-88
2023/11/12 01:13:15;359936.00;1.20;620.94;81301.00;0.27;141.28;;;;;14.30;1.00;;;;;;2275759;60;1474;-87
2023/11/12 01:15:43;713676.00;2.38;1230.96;82074.00;0.27;142.62;;;;;14.50;1.00;;;;;;2313981;56;3770;-88
2023/11/12 01:18:10;453975.00;1.51;782.62;81495.00;0.27;141.62;;;;;14.50;1.00;;;;;;2283904;60;1918;-88
2023/11/12 01:20:37;313561.00;1.05;541.23;88828.00;0.30;154.28;;;;;14.80;1.00;;;;;;2284014;60;1217;-88
2023/11/12 01:25:34;795818.00;2.65;1373.83;70897.00;0.24;123.31;;;;;14.70;1.00;;;;;;2297391;40;3457;-88
2023/11/12 01:28:03;481356.00;1.60;829.73;92532.00;0.31;160.68;;;;;14.70;1.00;;;;;;2283850;60;998;-89
2023/11/12 01:30:34;441799.00;1.47;761.68;81569.00;0.27;141.75;;;;;14.80;1.00;;;;;;2283892;60;1434;-88
2023/11/12 01:33:03;502360.00;1.67;865.89;82451.00;0.27;143.27;;;;;14.80;1.00;;;;;;2283794;60;1548;-90
2023/11/12 01:38:04;1052480.00;3.51;1825.65;133708.00;0.45;231.72;;;;;14.60;1.00;;;;;;2277748;60;1981;-88
2023/11/12 01:40:37;803014.00;2.68;1386.38;101953.00;0.34;176.94;;;;;14.40;1.00;;;;;;2275643;60;1625;-88
2023/11/12 01:43:05;1249575.00;4.17;2180.11;109864.00;0.37;190.60;;;;;14.40;1.00;;;;;;2275763;60;1768;-89
2023/11/12 01:45:32;1036865.00;3.46;1797.87;153429.00;0.51;265.72;;;;;14.40;1.00;;;;;;2275789;60;1657;-88
2023/11/12 01:47:59;1233168.00;4.11;2150.30;152526.00;0.51;264.16;;;;;14.60;1.00;;;;;;2275643;60;1120;-89
2023/11/12 01:50:29;841375.00;2.80;1453.38;136545.00;0.46;236.61;;;;;14.60;1.00;;;;;;2275849;60;1083;-89
2023/11/12 01:52:58;1077104.00;3.59;1869.53;135531.00;0.45;234.87;;;;;14.70;1.00;;;;;;2275711;60;1011;-89
2023/11/12 02:00:26;1279428.00;4.26;2234.51;118982.00;0.40;206.33;;;;;14.60;1.00;;;;;;2273854;61;1416;-89
2023/11/12 02:05:26;2018307.00;6.73;3661.98;107657.00;0.36;186.79;;;;;14.70;1.00;;;;;;2282272;60;1261;-87
2023/11/12 02:07:53;1252866.00;4.18;2186.10;58637.00;0.20;102.12;;;;;14.60;1.00;;;;;;2280357;60;1039;-88
2023/11/12 02:12:53;1737439.00;5.79;3098.40;18041.00;0.06;31.88;;;;;14.50;1.00;;;;;;2274186;61;1406;-88
2023/11/12 02:15:20;913910.00;3.05;1580.56;89375.00;0.30;155.23;;;;;14.90;1.00;;;;;;2272172;61;1755;-88
2023/11/12 02:17:49;966061.00;3.22;1672.45;103801.00;0.35;180.13;;;;;14.90;1.00;;;;;;2278166;39;3575;-87
2023/11/12 02:20:16;859365.00;2.86;1484.86;117125.00;0.39;203.12;;;;;14.70;1.00;;;;;;2287144;39;3582;-88
2023/11/12 02:22:44;1260142.00;4.20;2199.34;141734.00;0.47;245.56;;;;;14.90;1.00;;;;;;2284407;60;1607;-87
2023/11/12 02:25:14;1154323.00;3.85;2007.85;142550.00;0.48;246.97;;;;;14.70;1.00;;;;;;2283401;55;3980;-88
2023/11/12 02:30:09;1049742.00;3.50;1820.77;86758.00;0.29;150.71;;;;;14.80;1.00;;;;;;2277709;60;1406;-87
2023/11/12 02:32:38;527086.00;1.76;908.47;83471.00;0.28;145.03;;;;;14.70;1.00;;;;;;2276508;60;1288;-87
2023/11/12 02:37:33;991275.00;3.30;1717.02;101884.00;0.34;176.82;;;;;14.60;1.00;;;;;;2278013;60;1419;-88
2023/11/12 02:39:59;117835264.00;392.78;66276372.00;92363.00;0.31;160.39;;;;;14.40;1.00;;;;;;2276409;60;2005;-87
2023/11/12 02:42:29;750070.00;2.50;1294.18;134949.00;0.45;233.86;;;;;14.40;1.00;;;;;;2276342;60;1273;-88
2023/11/12 02:44:57;444448.00;1.48;766.23;81437.00;0.27;141.52;;;;;14.40;1.00;;;;;;2276234;60;1623;-87
2023/11/12 02:47:24;607483.00;2.02;1047.14;86240.00;0.29;149.81;;;;;14.50;1.00;;;;;;2276394;60;919;-88
2023/11/12 02:50:17;577410.00;1.92;995.23;82542.00;0.28;143.43;;;;;14.40;1.00;;;;;;2276261;60;980;-87
2023/11/12 02:52:43;1106587.00;3.69;1922.21;35996.00;0.12;62.96;;;;;14.40;1.00;;;;;;2276272;60;931;-88
2023/11/12 02:55:14;1487288.00;4.96;2619.22;138437.00;0.46;239.88;;;;;14.40;1.00;;;;;;2288078;56;3846;-88
2023/11/12 02:57:42;1015791.00;3.39;1760.46;58213.00;0.19;101.39;;;;;14.30;1.00;;;;;;2284560;55;3715;-87
2023/11/12 03:00:10;844577.00;2.82;1458.98;22132.00;0.07;38.96;;;;;14.10;1.00;;;;;;2287060;55;3578;-87
2023/11/12 03:02:38;1109124.00;3.70;1926.75;76899.00;0.26;133.68;;;;;14.10;1.00;;;;;;2288252;39;3586;-88
2023/11/12 03:05:07;1050034.00;3.50;1821.29;59812.00;0.20;104.15;;;;;13.90;1.00;;;;;;2276637;60;1294;-89
2023/11/12 03:07:34;781808.00;2.61;1349.42;27899.00;0.09;48.95;;;;;13.80;1.00;;;;;;2276210;60;1544;-88
2023/11/12 03:10:02;895083.00;2.98;1547.49;41479.00;0.14;72.45;;;;;13.70;1.00;;;;;;2276400;60;931;-88
2023/11/12 03:12:29;957365.00;3.19;1657.10;44990.00;0.15;78.52;;;;;13.50;1.00;;;;;;2276159;60;1621;-88
2023/11/12 03:14:58;796119.00;2.65;1374.36;14294.00;0.05;25.39;;;;;13.60;1.00;;;;;;2292230;40;3588;-88
2023/11/12 03:19:54;1652640.00;5.51;2933.77;14591.00;0.05;25.90;;;;;13.80;1.00;;;;;;2278272;61;1887;-87
2023/11/12 03:22:22;893860.00;2.98;1545.34;5785.00;0.02;10.65;;;;;13.90;1.00;;;;;;2276063;60;1681;-88
2023/11/12 03:27:19;1409450.00;4.70;2473.86;22097.00;0.07;38.90;;;;;13.90;1.00;;;;;;2277884;60;1246;-87
2023/11/12 03:29:46;665710.00;2.22;1147.83;30546.00;0.10;53.53;;;;;13.60;1.00;;;;;;2280654;55;4065;-88
2023/11/12 03:32:16;824010.00;2.75;1423.03;7953.00;0.03;14.40;;;;;13.60;1.00;;;;;;2280240;60;925;-87
2023/11/12 03:34:43;934615.00;3.12;1617.00;28624.00;0.10;50.20;;;;;13.70;1.00;;;;;;2276770;60;1514;-88
2023/11/12 03:37:12;1102728.00;3.68;1915.30;0.00;0.00;0.62;;;;;13.90;1.00;;;;;;2276139;60;906;-87
2023/11/12 03:42:15;1534171.00;5.11;2707.58;70043.00;0.23;121.83;;;;;14.00;1.00;;;;;;2277552;60;1418;-87
2023/11/12 03:44:42;888822.00;2.96;1536.50;125773.00;0.42;218.04;;;;;13.80;1.00;;;;;;2291816;55;3829;-86
2023/11/12 03:47:10;1442492.00;4.81;2535.37;192074.00;0.64;332.28;;;;;13.70;1.00;;;;;;2344940;40;3600;-89
2023/11/12 03:52:15;1257761.00;4.19;2195.01;127592.00;0.43;221.18;;;;;13.70;1.00;;;;;;2372436;56;2075;-88
2023/11/12 03:54:43;1255873.00;4.19;2191.57;87055.00;0.29;151.22;;;;;13.50;1.00;;;;;;2307877;40;3571;-88
2023/11/12 03:57:10;1032561.00;3.44;1790.23;117311.00;0.39;203.44;;;;;13.30;1.00;;;;;;2276091;60;1020;-87
2023/11/12 03:59:37;852278.00;2.84;1472.45;111566.00;0.37;193.53;;;;;13.50;1.00;;;;;;2276058;60;1997;-88
2023/11/12 04:02:05;1384091.00;4.61;2426.85;122822.00;0.41;212.95;;;;;13.50;1.00;;;;;;2290703;56;3745;-88
2023/11/12 04:04:32;1214645.00;4.05;2116.72;145626.00;0.49;252.27;;;;;13.20;1.00;;;;;;2281632;60;1436;-86
2023/11/12 04:06:59;1142194.00;3.81;1986.05;137160.00;0.46;237.67;;;;;12.80;1.00;;;;;;2280311;60;1596;-87
2023/11/12 04:09:27;1272704.00;4.24;2222.24;135336.00;0.45;234.53;;;;;12.60;1.00;;;;;;2280418;60;969;-86
2023/11/12 04:11:55;1171713.00;3.91;2039.16;99334.00;0.33;172.42;;;;;12.60;1.00;;;;;;2280344;60;1592;-88
2023/11/12 04:14:22;910186.00;3.03;1574.02;85220.00;0.28;148.05;;;;;13.00;1.00;;;;;;2280374;60;1368;-89
2023/11/12 04:16:49;118165624.00;393.89;66835860.00;114360.00;0.38;198.35;;;;;12.90;1.00;;;;;;2307574;40;3552;-88
2023/11/12 04:19:17;1370831.00;4.57;2402.33;131554.00;0.44;228.01;;;;;12.90;1.00;;;;;;2298129;56;3704;-86
2023/11/12 04:24:23;1701031.00;5.67;3027.43;99028.00;0.33;171.89;;;;;13.30;1.00;;;;;;2295633;56;1683;-87
2023/11/12 04:26:52;1511498.00;5.04;2664.77;98173.00;0.33;170.42;;;;;13.30;1.00;;;;;;2280108;60;1425;-87
2023/11/12 04:31:48;1327054.00;4.42;2321.70;138351.00;0.46;239.73;;;;;13.30;1.00;;;;;;2278083;60;1415;-87
2023/11/12 04:34:16;1178027.00;3.93;2050.54;152529.00;0.51;264.17;;;;;13.10;1.00;;;;;;2276101;60;1569;-88
2023/11/12 04:36:44;902268.00;3.01;1560.10;102091.00;0.34;177.18;;;;;12.90;1.00;;;;;;2352951;56;3717;-87
2023/11/12 04:39:11;864998.00;2.88;1494.73;88679.00;0.30;154.03;;;;;12.50;1.00;;;;;;2280272;60;2001;-90
2023/11/12 04:41:40;854571.00;2.85;1476.47;88624.00;0.30;153.93;;;;;12.70;1.00;;;;;;2299065;55;3787;-88
2023/11/12 04:46:43;744997.00;2.48;1285.36;84178.00;0.28;146.25;;;;;13.20;1.00;;;;;;2282156;60;1306;-88
2023/11/12 04:49:12;430932.00;1.44;742.99;78305.00;0.26;136.11;;;;;13.50;1.00;;;;;;2280183;60;1663;-87
2023/11/12 04:51:39;549199.00;1.83;946.58;84691.00;0.28;147.14;;;;;13.60;1.00;;;;;;2280213;60;1279;-86
2023/11/12 04:54:07;819367.00;2.73;1414.92;80363.00;0.27;139.66;;;;;13.70;1.00;;;;;;2280174;60;1831;-89
2023/11/12 04:56:34;1045460.00;3.48;1813.16;88839.00;0.30;154.30;;;;;13.80;1.00;;;;;;2288677;56;3896;-88
2023/11/12 04:59:01;117801424.00;392.67;66219240.00;130622.00;0.44;226.40;;;;;13.80;1.00;;;;;;2280088;60;1917;-88
2023/11/12 05:01:28;686402.00;2.29;1183.67;88677.00;0.30;154.02;;;;;13.50;1.00;;;;;;2280183;60;1608;-88
2023/11/12 05:03:56;538577.00;1.80;928.27;132096.00;0.44;228.94;;;;;13.20;1.00;;;;;;2278599;60;1584;-88
2023/11/12 05:06:28;580048.00;1.93;999.78;80510.00;0.27;139.92;;;;;12.80;1.00;;;;;;2276236;60;791;-88
2023/11/12 05:08:55;764910.00;2.55;1319.99;116192.00;0.39;201.51;;;;;12.80;1.00;;;;;;2276263;60;1001;-86
2023/11/12 05:11:22;824757.00;2.75;1424.33;83673.00;0.28;145.38;;;;;12.70;1.00;;;;;;2318023;40;3596;-86
2023/11/12 05:13:49;366714.00;1.22;632.59;82073.00;0.27;142.62;;;;;12.70;1.00;;;;;;2276802;61;1653;-87
2023/11/12 05:16:16;582365.00;1.94;1003.78;82758.00;0.28;143.80;;;;;13.10;1.00;;;;;;2276213;60;1228;-88
2023/11/12 05:18:49;534799.00;1.78;921.76;88319.00;0.29;153.40;;;;;13.40;1.00;;;;;;2276100;60;2004;-87
2023/11/12 05:21:18;460967.00;1.54;794.65;86995.00;0.29;151.12;;;;;13.10;1.00;;;;;;2276161;60;1000;-88
2023/11/12 05:23:45;561303.00;1.87;967.45;98732.00;0.33;171.38;;;;;13.00;1.00;;;;;;2276116;60;1250;-89
2023/11/12 05:26:13;952426.00;3.17;1648.39;94014.00;0.31;163.24;;;;;13.20;1.00;;;;;;2292470;40;3561;-87
2023/11/12 05:28:40;568787.00;1.90;980.35;82583.00;0.28;143.50;;;;;13.20;1.00;;;;;;2280251;60;1651;-86
2023/11/12 05:31:10;450340.00;1.50;776.37;84483.00;0.28;146.78;;;;;13.10;1.00;;;;;;2280960;60;1035;-87
2023/11/12 05:33:39;887073.00;2.96;1533.43;107282.00;0.36;186.14;;;;;12.80;1.00;;;;;;2279756;60;1732;-88
2023/11/12 05:36:07;1197341.00;3.99;2085.41;137006.00;0.46;237.41;;;;;12.60;1.00;;;;;;2276748;60;1042;-87
2023/11/12 05:38:35;883734.00;2.95;1527.57;91098.00;0.30;158.20;;;;;12.50;1.00;;;;;;2279307;40;3591;-87
2023/11/12 05:41:03;460740.00;1.54;794.26;81253.00;0.27;141.20;;;;;12.30;1.00;;;;;;2265823;40;3593;-85
2023/11/12 05:43:30;878321.00;2.93;1518.08;123469.00;0.41;214.07;;;;;12.10;1.00;;;;;;2283427;60;1355;-87
2023/11/12 05:45:57;117743040.00;392.48;66120736.00;95113.00;0.32;165.14;;;;;12.10;1.00;;;;;;2280696;60;1599;-87
2023/11/12 05:48:24;628010.00;2.09;1082.61;75525.00;0.25;131.31;;;;;12.20;1.00;;;;;;2280901;60;1304;-88
2023/11/12 05:50:51;519588.00;1.73;895.56;93455.00;0.31;162.27;;;;;12.20;1.00;;;;;;2280951;60;990;-87
2023/11/12 05:53:22;574875.00;1.92;990.86;96999.00;0.32;168.39;;;;;12.50;1.00;;;;;;2298280;39;3753;-86
2023/11/12 05:55:50;673800.00;2.25;1161.83;94422.00;0.31;163.94;;;;;12.50;1.00;;;;;;2276817;60;1001;-86
2023/11/12 05:58:17;998016.00;3.33;1728.96;135169.00;0.45;234.24;;;;;12.60;1.00;;;;;;2301367;55;3720;-85
2023/11/12 06:00:45;584033.00;1.95;1006.66;84971.00;0.28;147.62;;;;;12.80;1.00;;;;;;2282405;39;3422;-85
2023/11/12 06:03:12;1059019.00;3.53;1837.29;93476.00;0.31;162.31;;;;;12.90;1.00;;;;;;2280423;60;1372;-88
2023/11/12 06:05:40;954880.00;3.18;1652.72;115966.00;0.39;201.12;;;;;12.90;1.00;;;;;;2276758;60;1492;-87
2023/11/12 06:08:07;1080888.00;3.60;1876.28;107914.00;0.36;187.23;;;;;12.90;1.00;;;;;;2281406;55;3724;-89
2023/11/12 06:10:35;900466.00;3.00;1556.94;110324.00;0.37;191.39;;;;;13.00;1.00;;;;;;2280819;60;960;-88
2023/11/12 06:13:04;814179.00;2.71;1405.86;97731.00;0.33;169.66;;;;;13.10;1.00;;;;;;2280617;60;1745;-87
2023/11/12 06:15:31;792046.00;2.64;1367.26;107170.00;0.36;185.95;;;;;13.20;1.00;;;;;;2276818;60;1483;-87
2023/11/12 06:17:58;970085.00;3.23;1679.56;146326.00;0.49;253.48;;;;;12.70;1.00;;;;;;2276728;60;1449;-86
2023/11/12 06:20:27;1227474.00;4.09;2139.97;105670.00;0.35;183.36;;;;;12.30;1.00;;;;;;2276679;60;1915;-87
2023/11/12 06:22:56;869549.00;2.90;1502.70;110323.00;0.37;191.39;;;;;12.00;1.00;;;;;;2276540;60;1480;-87
2023/11/12 06:25:23;968813.00;3.23;1677.31;85090.00;0.28;147.83;;;;;12.30;1.00;;;;;;2276726;60;1274;-86
2023/11/12 06:27:50;1330977.00;4.44;2328.91;84740.00;0.28;147.22;;;;;12.30;1.00;;;;;;2276639;60;1472;-87
2023/11/12 06:30:22;1237282.00;4.12;2157.77;102942.00;0.34;178.65;;;;;12.10;1.00;;;;;;2276598;60;1550;-86
2023/11/12 06:32:50;953136.00;3.18;1649.64;148.00;0.00;0.88;;;;;12.30;1.00;;;;;;2276682;60;922;-89
2023/11/12 06:35:17;799535.00;2.67;1380.31;39104.00;0.13;68.34;;;;;12.50;1.00;;;;;;2276695;60;1800;-88
2023/11/12 06:37:44;1118270.00;3.73;1943.13;33665.00;0.11;58.93;;;;;12.70;1.00;;;;;;2276652;60;1631;-87
2023/11/12 06:40:12;1002935.00;3.34;1737.67;84283.00;0.28;146.43;;;;;12.60;1.00;;;;;;2276672;60;2013;-88
2023/11/12 06:42:43;1006562.00;3.36;1744.10;84905.00;0.28;147.51;;;;;12.80;1.00;;;;;;2276469;60;904;-87
2023/11/12 06:47:42;1509705.00;5.03;2661.40;69399.00;0.23;120.72;;;;;13.00;1.00;;;;;;2309492;56;4054;-89
2023/11/12 06:50:09;757079.00;2.52;1306.37;5001.00;0.02;9.29;;;;;12.70;1.00;;;;;;2284711;60;1465;-86
2023/11/12 06:52:37;853340.00;2.84;1474.31;8025.00;0.03;14.53;;;;;12.50;1.00;;;;;;2284653;60;1654;-85
2023/11/12 06:55:04;1024285.00;3.41;1775.53;27353.00;0.09;48.00;;;;;11.80;1.00;;;;;;2280983;60;1573;-87
2023/11/12 07:00:09;763943.00;2.55;1318.31;25747.00;0.09;45.22;;;;;11.40;1.00;;;;;;2281298;56;1969;-88
2023/11/12 07:02:38;121208632.00;404.03;72138480.00;5377.00;0.02;9.94;;;;;11.40;1.00;;;;;;2305151;39;3705;-86
2023/11/12 07:05:07;700755.00;2.34;1208.55;11268.00;0.04;20.15;;;;;11.70;1.00;;;;;;2304094;40;3677;-87
2023/11/12 07:07:34;471245.00;1.57;812.33;41115.00;0.14;71.82;;;;;11.90;1.00;;;;;;2284715;60;1775;-87
2023/11/12 07:10:01;618560.00;2.06;1066.28;5062.00;0.02;9.39;;;;;12.00;1.00;;;;;;2284674;60;773;-86
2023/11/12 07:12:30;703341.00;2.34;1213.03;14576.00;0.05;25.88;;;;;11.60;1.00;;;;;;2284630;60;941;-85
2023/11/12 07:14:57;739489.00;2.46;1275.79;34648.00;0.12;60.63;;;;;10.80;1.00;;;;;;2280595;60;1553;-85
2023/11/12 07:17:24;751432.00;2.50;1296.55;36984.00;0.12;64.67;;;;;10.60;1.00;;;;;;2280211;60;1010;-86
2023/11/12 07:19:53;640487.00;2.13;1104.18;0.00;0.00;0.62;;;;;11.10;1.00;;;;;;2280526;60;1919;-87
2023/11/12 07:22:21;1016699.00;3.39;1762.07;0.00;0.00;0.62;;;;;11.40;1.00;;;;;;2280492;60;1433;-87
2023/11/12 07:24:48;1031679.00;3.44;1788.66;38656.00;0.13;67.56;;;;;11.40;1.00;;;;;;2280415;60;1407;-87
2023/11/12 07:27:15;898076.00;2.99;1552.74;30622.00;0.10;53.66;;;;;10.90;1.00;;;;;;2280583;60;980;-86
2023/11/12 07:29:43;828255.00;2.76;1430.45;46125.00;0.15;80.48;;;;;10.70;1.00;;;;;;2280620;60;922;-87
2023/11/12 07:32:09;937278.00;3.12;1621.69;37949.00;0.13;66.34;;;;;10.80;1.00;;;;;;2280652;60;1098;-86
2023/11/12 07:34:37;989975.00;3.30;1714.72;39714.00;0.13;69.39;;;;;10.70;1.00;;;;;;2280572;60;1407;-87
2023/11/12 07:37:04;957701.00;3.19;1657.70;51140.00;0.17;89.16;;;;;10.70;1.00;;;;;;2280514;60;2245;-87
2023/11/12 07:39:33;838809.00;2.80;1448.89;26969.00;0.09;47.34;;;;;10.90;1.00;;;;;;2280451;60;1911;-87
2023/11/12 07:42:00;905851.00;3.02;1566.40;16794.00;0.06;29.72;;;;;10.90;1.00;;;;;;2280470;60;1422;-86
2023/11/12 07:44:29;756025.00;2.52;1304.54;70709.00;0.24;122.99;;;;;11.40;1.00;;;;;;2280472;60;1364;-87
2023/11/12 07:46:56;680953.00;2.27;1174.22;3462.00;0.01;6.62;;;;;12.00;1.00;;;;;;2280632;60;945;-87
2023/11/12 07:49:23;754160.00;2.51;1301.29;4825.00;0.02;8.98;;;;;12.20;1.00;;;;;;2280536;60;1022;-87
2023/11/12 07:51:51;718557.00;2.40;1239.43;26075.00;0.09;45.79;;;;;12.60;1.00;;;;;;2280618;60;1417;-88
2023/11/12 07:54:18;985473.00;3.28;1706.76;27204.00;0.09;47.74;;;;;12.60;1.00;;;;;;2280182;60;1437;-87
2023/11/12 07:56:46;964584.00;3.22;1669.84;14216.00;0.05;25.25;;;;;12.40;1.00;;;;;;2280562;60;1129;-87
2023/11/12 07:59:13;1260426.00;4.20;2199.86;17790.00;0.06;31.44;;;;;12.50;1.00;;;;;;2280505;60;1132;-89
2023/11/12 08:01:41;825693.00;2.75;1425.97;38089.00;0.13;66.58;;;;;12.60;1.00;;;;;;2280439;60;2021;-88
2023/11/12 08:04:08;822443.00;2.74;1420.29;25764.00;0.09;45.25;;;;;12.50;1.00;;;;;;2283316;55;3836;-87
2023/11/12 08:06:37;665607.00;2.22;1147.65;0.00;0.00;0.62;;;;;12.40;1.00;;;;;;2284558;60;1263;-89
2023/11/12 08:09:04;586233.00;1.95;1010.45;3824.00;0.01;7.25;;;;;12.50;1.00;;;;;;2284512;60;1710;-88
2023/11/12 08:11:30;1098747.00;3.66;1908.18;45186.00;0.15;78.86;;;;;12.60;1.00;;;;;;2284497;60;1585;-88
2023/11/12 08:13:59;730632.00;2.44;1260.40;28707.00;0.10;50.34;;;;;13.10;1.00;;;;;;2282791;60;1333;-88
2023/11/12 08:16:25;786115.00;2.62;1356.92;33592.00;0.11;58.80;;;;;13.20;1.00;;;;;;2280491;60;1012;-89
2023/11/12 08:18:53;659233.00;2.20;1136.61;0.00;0.00;0.62;;;;;13.10;1.00;;;;;;2280448;60;1501;-89
2023/11/12 08:21:20;595564.00;1.99;1026.56;19013.00;0.06;33.56;;;;;13.30;1.00;;;;;;2280342;60;2001;-88
2023/11/12 08:23:48;857088.00;2.86;1480.87;50012.00;0.17;87.21;;;;;13.30;1.00;;;;;;2280387;60;1256;-88
2023/11/12 08:26:15;966233.00;3.22;1672.76;25153.00;0.08;44.19;;;;;13.30;1.00;;;;;;2280384;60;1223;-89
2023/11/12 08:28:42;1165690.00;3.89;2028.31;59904.00;0.20;104.31;;;;;12.80;1.00;;;;;;2280387;60;896;-86
2023/11/12 08:31:10;1000617.00;3.34;1733.56;39932.00;0.13;69.77;;;;;12.30;1.00;;;;;;2280303;60;1642;-87
2023/11/12 08:33:37;1838446.00;6.13;3297.71;57761.00;0.19;100.61;;;;;12.00;1.00;;;;;;2280395;60;1448;-87
2023/11/12 08:36:05;951837.00;3.17;1647.35;45344.00;0.15;79.13;;;;;12.10;1.00;;;;;;2280304;60;1115;-86
2023/11/12 08:38:32;857920.00;2.86;1482.33;15888.00;0.05;28.15;;;;;12.40;1.00;;;;;;2280372;60;1758;-86
2023/11/12 08:40:59;1015281.00;3.38;1759.56;0.00;0.00;0.62;;;;;12.80;1.00;;;;;;2280375;60;2014;-88
2023/11/12 08:43:27;1027963.00;3.43;1782.06;21887.00;0.07;38.54;;;;;13.30;1.00;;;;;;2280293;60;1632;-87
2023/11/12 08:45:56;1408545.00;4.70;2472.18;0.00;0.00;0.62;;;;;13.50;1.00;;;;;;2280169;60;1700;-87
2023/11/12 08:48:31;1427603.00;4.76;2507.62;104923.00;0.35;182.07;;;;;13.40;1.00;;;;;;2280302;60;1715;-88
2023/11/12 08:50:59;765035.00;2.55;1320.21;16508.00;0.06;29.22;;;;;13.10;1.00;;;;;;2280297;60;1442;-87
2023/11/12 08:53:28;770686.00;2.57;1330.05;19139.00;0.06;33.78;;;;;13.00;1.00;;;;;;2280213;60;1276;-88
2023/11/12 08:55:55;958491.00;3.19;1659.09;18590.00;0.06;32.83;;;;;12.90;1.00;;;;;;2280062;60;1594;-88
2023/11/12 08:58:23;830030.00;2.77;1433.55;16803.00;0.06;29.73;;;;;12.20;1.00;;;;;;2282772;55;3729;-87
2023/11/12 09:00:50;745327.00;2.48;1285.93;40869.00;0.14;71.39;;;;;12.40;1.00;;;;;;2276155;61;2002;-87
2023/11/12 09:03:17;1153922.00;3.85;2007.13;55825.00;0.19;97.26;;;;;12.90;1.00;;;;;;2276151;60;1294;-88
2023/11/12 09:05:46;873334.00;2.91;1509.33;20310.00;0.07;35.81;;;;;13.10;1.00;;;;;;2276115;60;1535;-87
2023/11/12 09:08:13;904884.00;3.02;1564.70;0.00;0.00;0.62;;;;;13.10;1.00;;;;;;2276220;60;1540;-87
2023/11/12 09:10:41;850395.00;2.83;1469.16;15379.00;0.05;27.27;;;;;13.20;1.00;;;;;;2276127;60;1059;-88
2023/11/12 09:15:44;1147266.00;3.82;1995.16;20164.00;0.07;35.55;;;;;13.50;1.00;;;;;;2019709;59;1776;-87
2023/11/12 09:18:12;806716.00;2.69;1392.84;44798.00;0.15;78.19;;;;;13.80;1.00;;;;;;2280156;60;1102;-87
2023/11/12 09:20:39;926111.00;3.09;1602.03;105853.00;0.35;183.67;;;;;13.40;1.00;;;;;;2280202;60;2002;-87
2023/11/12 09:23:07;752621.00;2.51;1298.62;61489.00;0.20;107.05;;;;;13.40;1.00;;;;;;2280130;60;1279;-91
2023/11/12 09:25:34;818164.00;2.73;1412.82;37217.00;0.12;65.07;;;;;13.20;1.00;;;;;;2280078;60;1542;-89
2023/11/12 09:28:03;811695.00;2.71;1401.53;29457.00;0.10;51.64;;;;;13.30;1.00;;;;;;2280122;60;929;-89
2023/11/12 09:30:33;801205.00;2.67;1383.23;72866.00;0.24;126.71;;;;;13.70;1.00;;;;;;2294538;39;3535;-87
2023/11/12 09:33:01;1481099.00;4.94;2607.60;41872.00;0.14;73.13;;;;;13.50;1.00;;;;;;2362416;40;3654;-87
2023/11/12 09:35:28;693438.00;2.31;1195.86;58268.00;0.19;101.48;;;;;13.50;1.00;;;;;;2276773;61;1479;-88
2023/11/12 09:37:55;1063793.00;3.55;1845.79;39705.00;0.13;69.38;;;;;13.70;1.00;;;;;;2276094;60;1451;-88
2023/11/12 09:40:24;712834.00;2.38;1229.50;32098.00;0.11;56.21;;;;;13.70;1.00;;;;;;2276112;60;2020;-88
2023/11/12 09:42:53;641303.00;2.14;1105.59;30670.00;0.10;53.74;;;;;13.90;1.00;;;;;;2276183;60;978;-88
2023/11/12 09:45:21;656962.00;2.19;1132.68;56931.00;0.19;99.17;;;;;13.90;1.00;;;;;;2276149;60;1335;-88
2023/11/12 09:47:59;773927.00;2.58;1335.69;38276.00;0.13;66.91;;;;;14.30;1.00;;;;;;2276093;60;1109;-89
2023/11/12 09:50:26;521067.00;1.74;898.10;69853.00;0.23;121.51;;;;;14.60;1.00;;;;;;2276073;60;1501;-89
2023/11/12 09:52:55;830206.00;2.77;1433.85;87586.00;0.29;152.14;;;;;14.20;1.00;;;;;;2276195;60;1436;-89
2023/11/12 09:55:26;1165842.00;3.89;2028.58;23764.00;0.08;41.79;;;;;14.30;1.00;;;;;;2276052;60;1602;-88
2023/11/12 09:57:54;810936.00;2.70;1400.20;79894.00;0.27;138.85;;;;;14.10;1.00;;;;;;2272505;60;1190;-87
2023/11/12 10:00:21;926180.00;3.09;1602.15;64066.00;0.21;111.51;;;;;13.40;1.00;;;;;;2276027;60;1998;-86
2023/11/12 10:02:50;1059012.00;3.53;1837.28;88959.00;0.30;154.51;;;;;13.30;1.00;;;;;;2276112;60;1209;-88
2023/11/12 10:05:17;593541.00;1.98;1023.07;12477.00;0.04;22.24;;;;;13.40;1.00;;;;;;2275963;60;1238;-88
2023/11/12 10:07:44;1122092.00;3.74;1949.98;78011.00;0.26;135.60;;;;;13.60;1.00;;;;;;2276148;60;1049;-87
2023/11/12 10:10:26;534297.00;1.78;920.90;20442.00;0.07;36.04;;;;;13.90;1.00;;;;;;2276115;60;1435;-88
2023/11/12 10:12:54;85911.00;0.29;149.25;0.00;0.00;0.62;;;;;13.90;1.00;;;;;;2275997;60;1572;-87
2023/11/12 10:15:25;413457.00;1.38;712.94;15001.00;0.05;26.61;;;;;13.50;1.00;;;;;;2275899;60;1510;-87
2023/11/12 10:17:53;527590.00;1.76;909.34;0.00;0.00;0.62;;;;;13.60;1.00;;;;;;2276691;60;1477;-87
2023/11/12 10:20:22;294339.00;0.98;508.19;16230.00;0.05;28.74;;;;;13.70;1.00;;;;;;2276710;60;2004;-87
2023/11/12 10:22:53;447755.00;1.49;771.92;42384.00;0.14;74.01;;;;;14.10;1.00;;;;;;2276643;60;1519;-89